sensor_id;sensor_type;location;lat;lon;timestamp;P1;durP1;ratioP1;P2;durP2;ratioP2
34035;SDS011;63481;52.588;22.472;2023-03-01T00:00:13;35.70;;;20.30;;
34035;SDS011;63481;52.588;22.472;2023-03-01T00:01:26;32.10;;;19.00;;
34035;SDS011;63481;52.588;22.472;2023-03-01T00:02:21;37.00;;;20.60;;
34035;SDS011;63481;52.588;22.472;2023-03-01T00:03:14;33.20;;;19.00;;
34035;SDS011;63481;52.588;22.472;2023-03-01T00:04:07;35.10;;;19.10;;
34035;SDS011;63481;52.588;22.472;2023-03-01T00:05:00;34.60;;;19.60;;
34035;SDS011;63481;52.588;22.472;2023-03-01T00:05:52;33.20;;;19.00;;
34035;SDS011;63481;52.588;22.472;2023-03-01T00:06:45;35.10;;;18.90;;
34035;SDS011;63481;52.588;22.472;2023-03-01T00:07:38;35.00;;;19.50;;
34035;SDS011;63481;52.588;22.472;2023-03-01T00:08:31;32.80;;;18.90;;
34035;SDS011;63481;52.588;22.472;2023-03-01T00:09:25;35.20;;;19.10;;
34035;SDS011;63481;52.588;22.472;2023-03-01T00:10:17;39.50;;;20.70;;
34035;SDS011;63481;52.588;22.472;2023-03-01T00:11:14;38.40;;;21.80;;
34035;SDS011;63481;52.588;22.472;2023-03-01T00:12:12;35.30;;;19.80;;
34035;SDS011;63481;52.588;22.472;2023-03-01T00:13:05;33.90;;;20.20;;
34035;SDS011;63481;52.588;22.472;2023-03-01T00:13:59;37.40;;;19.90;;
34035;SDS011;63481;52.588;22.472;2023-03-01T00:15:01;33.50;;;18.10;;
34035;SDS011;63481;52.588;22.472;2023-03-01T00:15:57;35.40;;;18.20;;
34035;SDS011;63481;52.588;22.472;2023-03-01T00:16:49;39.20;;;18.70;;
34035;SDS011;63481;52.588;22.472;2023-03-01T00:17:42;34.40;;;19.60;;
34035;SDS011;63481;52.588;22.472;2023-03-01T00:18:35;35.80;;;20.40;;
34035;SDS011;63481;52.588;22.472;2023-03-01T00:19:27;35.40;;;20.00;;
34035;SDS011;63481;52.588;22.472;2023-03-01T00:20:20;36.30;;;19.30;;
34035;SDS011;63481;52.588;22.472;2023-03-01T00:21:13;35.60;;;19.30;;
34035;SDS011;63481;52.588;22.472;2023-03-01T00:22:06;33.70;;;20.30;;
34035;SDS011;63481;52.588;22.472;2023-03-01T00:22:59;37.60;;;19.70;;
34035;SDS011;63481;52.588;22.472;2023-03-01T00:23:52;34.80;;;19.40;;
34035;SDS011;63481;52.588;22.472;2023-03-01T00:24:45;34.00;;;18.90;;
34035;SDS011;63481;52.588;22.472;2023-03-01T00:25:42;36.80;;;20.70;;
34035;SDS011;63481;52.588;22.472;2023-03-01T00:26:35;33.00;;;19.20;;
34035;SDS011;63481;52.588;22.472;2023-03-01T00:27:28;33.70;;;19.10;;
34035;SDS011;63481;52.588;22.472;2023-03-01T00:28:21;32.20;;;19.40;;
34035;SDS011;63481;52.588;22.472;2023-03-01T00:29:14;31.10;;;19.30;;
34035;SDS011;63481;52.588;22.472;2023-03-01T00:30:07;36.80;;;20.30;;
34035;SDS011;63481;52.588;22.472;2023-03-01T00:31:07;35.30;;;18.50;;
34035;SDS011;63481;52.588;22.472;2023-03-01T00:32:04;36.30;;;19.20;;
34035;SDS011;63481;52.588;22.472;2023-03-01T00:32:57;35.60;;;20.40;;
34035;SDS011;63481;52.588;22.472;2023-03-01T00:33:56;35.60;;;20.90;;
34035;SDS011;63481;52.588;22.472;2023-03-01T00:34:51;36.80;;;20.30;;
34035;SDS011;63481;52.588;22.472;2023-03-01T00:35:47;34.90;;;20.50;;
34035;SDS011;63481;52.588;22.472;2023-03-01T00:36:39;36.40;;;19.50;;
34035;SDS011;63481;52.588;22.472;2023-03-01T00:37:32;36.20;;;20.00;;
34035;SDS011;63481;52.588;22.472;2023-03-01T00:38:26;41.10;;;21.70;;
34035;SDS011;63481;52.588;22.472;2023-03-01T00:39:19;35.10;;;19.80;;
34035;SDS011;63481;52.588;22.472;2023-03-01T00:40:13;35.60;;;21.20;;
34035;SDS011;63481;52.588;22.472;2023-03-01T00:41:10;37.00;;;19.40;;
34035;SDS011;63481;52.588;22.472;2023-03-01T00:42:07;34.80;;;19.90;;
34035;SDS011;63481;52.588;22.472;2023-03-01T00:43:01;33.00;;;18.90;;
34035;SDS011;63481;52.588;22.472;2023-03-01T00:43:55;36.90;;;20.60;;
34035;SDS011;63481;52.588;22.472;2023-03-01T00:44:47;34.80;;;19.00;;
34035;SDS011;63481;52.588;22.472;2023-03-01T00:45:40;35.40;;;18.90;;
34035;SDS011;63481;52.588;22.472;2023-03-01T00:46:33;39.30;;;20.40;;
34035;SDS011;63481;52.588;22.472;2023-03-01T00:47:28;34.90;;;19.40;;
34035;SDS011;63481;52.588;22.472;2023-03-01T00:48:21;38.50;;;20.90;;
34035;SDS011;63481;52.588;22.472;2023-03-01T00:49:14;39.50;;;21.90;;
34035;SDS011;63481;52.588;22.472;2023-03-01T00:50:07;36.60;;;20.90;;
34035;SDS011;63481;52.588;22.472;2023-03-01T00:51:17;37.30;;;20.40;;
34035;SDS011;63481;52.588;22.472;2023-03-01T00:52:12;35.70;;;19.10;;
34035;SDS011;63481;52.588;22.472;2023-03-01T00:53:05;37.00;;;19.80;;
34035;SDS011;63481;52.588;22.472;2023-03-01T00:53:59;35.60;;;19.20;;
34035;SDS011;63481;52.588;22.472;2023-03-01T00:54:57;37.00;;;20.70;;
34035;SDS011;63481;52.588;22.472;2023-03-01T00:55:50;36.50;;;20.50;;
34035;SDS011;63481;52.588;22.472;2023-03-01T00:56:42;34.40;;;20.40;;
34035;SDS011;63481;52.588;22.472;2023-03-01T00:57:35;38.10;;;20.30;;
34035;SDS011;63481;52.588;22.472;2023-03-01T00:58:28;36.40;;;20.60;;
34035;SDS011;63481;52.588;22.472;2023-03-01T00:59:21;36.60;;;20.80;;
34035;SDS011;63481;52.588;22.472;2023-03-01T01:00:14;36.50;;;20.20;;
34035;SDS011;63481;52.588;22.472;2023-03-01T01:01:11;33.40;;;18.70;;
34035;SDS011;63481;52.588;22.472;2023-03-01T01:02:12;34.60;;;19.00;;
34035;SDS011;63481;52.588;22.472;2023-03-01T01:03:04;32.30;;;18.80;;
34035;SDS011;63481;52.588;22.472;2023-03-01T01:04:07;35.00;;;20.20;;
34035;SDS011;63481;52.588;22.472;2023-03-01T01:05:03;37.60;;;20.20;;
34035;SDS011;63481;52.588;22.472;2023-03-01T01:06:00;33.40;;;19.60;;
34035;SDS011;63481;52.588;22.472;2023-03-01T01:07:01;34.10;;;19.60;;
34035;SDS011;63481;52.588;22.472;2023-03-01T01:07:54;38.30;;;20.10;;
34035;SDS011;63481;52.588;22.472;2023-03-01T01:08:47;34.60;;;20.20;;
34035;SDS011;63481;52.588;22.472;2023-03-01T01:09:41;34.90;;;19.50;;
34035;SDS011;63481;52.588;22.472;2023-03-01T01:10:34;32.70;;;19.50;;
34035;SDS011;63481;52.588;22.472;2023-03-01T01:11:28;42.80;;;19.90;;
34035;SDS011;63481;52.588;22.472;2023-03-01T01:12:21;33.50;;;20.10;;
34035;SDS011;63481;52.588;22.472;2023-03-01T01:13:14;38.40;;;21.00;;
34035;SDS011;63481;52.588;22.472;2023-03-01T01:14:07;35.30;;;19.70;;
34035;SDS011;63481;52.588;22.472;2023-03-01T01:15:00;36.80;;;20.10;;
34035;SDS011;63481;52.588;22.472;2023-03-01T01:15:53;34.60;;;19.80;;
34035;SDS011;63481;52.588;22.472;2023-03-01T01:16:46;35.90;;;20.20;;
34035;SDS011;63481;52.588;22.472;2023-03-01T01:17:39;35.30;;;19.80;;
34035;SDS011;63481;52.588;22.472;2023-03-01T01:18:32;34.90;;;20.70;;
34035;SDS011;63481;52.588;22.472;2023-03-01T01:19:25;32.80;;;19.30;;
34035;SDS011;63481;52.588;22.472;2023-03-01T01:20:18;33.40;;;19.90;;
34035;SDS011;63481;52.588;22.472;2023-03-01T01:21:13;35.00;;;19.80;;
34035;SDS011;63481;52.588;22.472;2023-03-01T01:22:07;34.00;;;20.20;;
34035;SDS011;63481;52.588;22.472;2023-03-01T01:23:00;38.30;;;19.60;;
34035;SDS011;63481;52.588;22.472;2023-03-01T01:23:53;39.80;;;20.20;;
34035;SDS011;63481;52.588;22.472;2023-03-01T01:24:46;38.90;;;20.80;;
34035;SDS011;63481;52.588;22.472;2023-03-01T01:25:39;34.30;;;20.40;;
34035;SDS011;63481;52.588;22.472;2023-03-01T01:26:33;38.20;;;20.50;;
34035;SDS011;63481;52.588;22.472;2023-03-01T01:27:26;36.30;;;20.60;;
34035;SDS011;63481;52.588;22.472;2023-03-01T01:28:19;36.50;;;20.00;;
34035;SDS011;63481;52.588;22.472;2023-03-01T01:29:12;34.50;;;20.70;;
34035;SDS011;63481;52.588;22.472;2023-03-01T01:30:05;35.70;;;21.00;;
34035;SDS011;63481;52.588;22.472;2023-03-01T01:30:58;40.60;;;20.90;;
34035;SDS011;63481;52.588;22.472;2023-03-01T01:31:51;35.00;;;20.00;;
34035;SDS011;63481;52.588;22.472;2023-03-01T01:32:44;36.90;;;20.50;;
34035;SDS011;63481;52.588;22.472;2023-03-01T01:33:36;42.80;;;20.80;;
34035;SDS011;63481;52.588;22.472;2023-03-01T01:34:29;32.20;;;19.00;;
34035;SDS011;63481;52.588;22.472;2023-03-01T01:35:22;41.60;;;20.30;;
34035;SDS011;63481;52.588;22.472;2023-03-01T01:36:15;34.20;;;19.50;;
34035;SDS011;63481;52.588;22.472;2023-03-01T01:37:08;33.20;;;19.10;;
34035;SDS011;63481;52.588;22.472;2023-03-01T01:38:01;36.70;;;20.40;;
34035;SDS011;63481;52.588;22.472;2023-03-01T01:38:54;34.70;;;19.60;;
34035;SDS011;63481;52.588;22.472;2023-03-01T01:39:47;36.70;;;19.90;;
34035;SDS011;63481;52.588;22.472;2023-03-01T01:40:43;36.20;;;20.00;;
34035;SDS011;63481;52.588;22.472;2023-03-01T01:41:37;38.20;;;19.70;;
34035;SDS011;63481;52.588;22.472;2023-03-01T01:42:30;41.50;;;21.30;;
34035;SDS011;63481;52.588;22.472;2023-03-01T01:44:09;38.90;;;20.60;;
34035;SDS011;63481;52.588;22.472;2023-03-01T01:47:21;38.20;;;19.20;;
34035;SDS011;63481;52.588;22.472;2023-03-01T01:48:19;35.30;;;20.20;;
34035;SDS011;63481;52.588;22.472;2023-03-01T01:50:29;35.30;;;18.40;;
34035;SDS011;63481;52.588;22.472;2023-03-01T01:51:31;39.00;;;19.70;;
34035;SDS011;63481;52.588;22.472;2023-03-01T01:52:34;36.20;;;19.60;;
34035;SDS011;63481;52.588;22.472;2023-03-01T01:53:30;34.10;;;19.00;;
34035;SDS011;63481;52.588;22.472;2023-03-01T01:54:36;34.70;;;19.50;;
34035;SDS011;63481;52.588;22.472;2023-03-01T01:55:31;33.00;;;18.30;;
34035;SDS011;63481;52.588;22.472;2023-03-01T01:56:24;40.40;;;20.50;;
34035;SDS011;63481;52.588;22.472;2023-03-01T01:57:20;38.30;;;19.40;;
34035;SDS011;63481;52.588;22.472;2023-03-01T01:58:18;38.70;;;19.50;;
34035;SDS011;63481;52.588;22.472;2023-03-01T01:59:13;34.60;;;19.30;;
34035;SDS011;63481;52.588;22.472;2023-03-01T02:00:11;36.30;;;20.10;;
34035;SDS011;63481;52.588;22.472;2023-03-01T02:01:09;35.20;;;18.60;;
34035;SDS011;63481;52.588;22.472;2023-03-01T02:02:03;38.60;;;20.40;;
34035;SDS011;63481;52.588;22.472;2023-03-01T02:03:00;35.60;;;19.70;;
34035;SDS011;63481;52.588;22.472;2023-03-01T02:03:55;37.20;;;19.60;;
34035;SDS011;63481;52.588;22.472;2023-03-01T02:04:50;33.50;;;18.30;;
34035;SDS011;63481;52.588;22.472;2023-03-01T02:05:52;35.70;;;19.60;;
34035;SDS011;63481;52.588;22.472;2023-03-01T02:06:51;33.60;;;18.40;;
34035;SDS011;63481;52.588;22.472;2023-03-01T02:07:50;35.30;;;19.60;;
34035;SDS011;63481;52.588;22.472;2023-03-01T02:08:45;33.70;;;19.00;;
34035;SDS011;63481;52.588;22.472;2023-03-01T02:09:41;34.60;;;19.00;;
34035;SDS011;63481;52.588;22.472;2023-03-01T02:10:40;34.50;;;18.50;;
34035;SDS011;63481;52.588;22.472;2023-03-01T02:11:33;33.80;;;18.80;;
34035;SDS011;63481;52.588;22.472;2023-03-01T02:12:29;35.20;;;18.90;;
34035;SDS011;63481;52.588;22.472;2023-03-01T02:13:23;34.80;;;19.20;;
34035;SDS011;63481;52.588;22.472;2023-03-01T02:14:16;36.30;;;17.40;;
34035;SDS011;63481;52.588;22.472;2023-03-01T02:15:09;33.10;;;18.80;;
34035;SDS011;63481;52.588;22.472;2023-03-01T02:16:04;31.60;;;18.80;;
34035;SDS011;63481;52.588;22.472;2023-03-01T02:17:00;33.50;;;18.70;;
34035;SDS011;63481;52.588;22.472;2023-03-01T02:17:55;36.50;;;19.60;;
34035;SDS011;63481;52.588;22.472;2023-03-01T02:18:48;37.40;;;19.70;;
34035;SDS011;63481;52.588;22.472;2023-03-01T02:20:54;35.00;;;18.20;;
34035;SDS011;63481;52.588;22.472;2023-03-01T02:22:05;34.50;;;18.70;;
34035;SDS011;63481;52.588;22.472;2023-03-01T02:23:07;34.50;;;18.20;;
34035;SDS011;63481;52.588;22.472;2023-03-01T02:24:02;32.20;;;18.50;;
34035;SDS011;63481;52.588;22.472;2023-03-01T02:28:50;31.00;;;17.20;;
34035;SDS011;63481;52.588;22.472;2023-03-01T02:29:43;37.30;;;18.80;;
34035;SDS011;63481;52.588;22.472;2023-03-01T02:30:36;34.90;;;17.30;;
34035;SDS011;63481;52.588;22.472;2023-03-01T02:31:29;28.60;;;16.50;;
34035;SDS011;63481;52.588;22.472;2023-03-01T02:32:35;34.20;;;18.00;;
34035;SDS011;63481;52.588;22.472;2023-03-01T02:33:28;35.50;;;17.30;;
34035;SDS011;63481;52.588;22.472;2023-03-01T02:34:25;31.40;;;16.60;;
34035;SDS011;63481;52.588;22.472;2023-03-01T02:35:20;32.60;;;18.00;;
34035;SDS011;63481;52.588;22.472;2023-03-01T02:36:17;29.70;;;16.40;;
34035;SDS011;63481;52.588;22.472;2023-03-01T02:37:13;32.00;;;17.30;;
34035;SDS011;63481;52.588;22.472;2023-03-01T02:38:12;34.30;;;17.50;;
34035;SDS011;63481;52.588;22.472;2023-03-01T02:39:06;31.60;;;17.30;;
34035;SDS011;63481;52.588;22.472;2023-03-01T02:40:08;31.50;;;18.30;;
34035;SDS011;63481;52.588;22.472;2023-03-01T02:41:06;30.10;;;17.20;;
34035;SDS011;63481;52.588;22.472;2023-03-01T02:41:59;33.70;;;18.20;;
34035;SDS011;63481;52.588;22.472;2023-03-01T02:42:58;30.70;;;16.80;;
34035;SDS011;63481;52.588;22.472;2023-03-01T02:43:51;32.80;;;17.50;;
34035;SDS011;63481;52.588;22.472;2023-03-01T02:44:44;31.90;;;16.90;;
34035;SDS011;63481;52.588;22.472;2023-03-01T02:45:37;30.50;;;17.40;;
34035;SDS011;63481;52.588;22.472;2023-03-01T02:46:44;31.90;;;17.50;;
34035;SDS011;63481;52.588;22.472;2023-03-01T02:47:39;34.20;;;17.10;;
34035;SDS011;63481;52.588;22.472;2023-03-01T02:48:44;31.30;;;16.70;;
34035;SDS011;63481;52.588;22.472;2023-03-01T02:49:42;29.00;;;16.30;;
34035;SDS011;63481;52.588;22.472;2023-03-01T02:54:35;30.00;;;15.80;;
34035;SDS011;63481;52.588;22.472;2023-03-01T02:55:35;31.80;;;16.30;;
34035;SDS011;63481;52.588;22.472;2023-03-01T02:56:27;32.50;;;16.40;;
34035;SDS011;63481;52.588;22.472;2023-03-01T02:57:22;30.70;;;16.90;;
34035;SDS011;63481;52.588;22.472;2023-03-01T02:58:17;30.50;;;17.70;;
34035;SDS011;63481;52.588;22.472;2023-03-01T02:59:10;32.30;;;16.50;;
34035;SDS011;63481;52.588;22.472;2023-03-01T03:00:05;31.10;;;17.10;;
34035;SDS011;63481;52.588;22.472;2023-03-01T03:01:02;31.90;;;17.30;;
34035;SDS011;63481;52.588;22.472;2023-03-01T03:01:54;34.10;;;17.40;;
34035;SDS011;63481;52.588;22.472;2023-03-01T03:02:51;33.00;;;17.80;;
34035;SDS011;63481;52.588;22.472;2023-03-01T03:03:46;33.20;;;17.90;;
34035;SDS011;63481;52.588;22.472;2023-03-01T03:04:39;30.70;;;17.30;;
34035;SDS011;63481;52.588;22.472;2023-03-01T03:05:33;29.20;;;16.70;;
34035;SDS011;63481;52.588;22.472;2023-03-01T03:06:26;31.20;;;16.80;;
34035;SDS011;63481;52.588;22.472;2023-03-01T03:07:19;33.40;;;17.00;;
34035;SDS011;63481;52.588;22.472;2023-03-01T03:08:13;33.90;;;17.20;;
34035;SDS011;63481;52.588;22.472;2023-03-01T03:09:06;35.60;;;18.00;;
34035;SDS011;63481;52.588;22.472;2023-03-01T03:10:00;29.60;;;17.30;;
34035;SDS011;63481;52.588;22.472;2023-03-01T03:10:54;32.80;;;16.60;;
34035;SDS011;63481;52.588;22.472;2023-03-01T03:11:48;32.90;;;17.30;;
34035;SDS011;63481;52.588;22.472;2023-03-01T03:12:41;29.30;;;17.00;;
34035;SDS011;63481;52.588;22.472;2023-03-01T03:13:34;31.30;;;16.40;;
34035;SDS011;63481;52.588;22.472;2023-03-01T03:14:27;29.50;;;16.50;;
34035;SDS011;63481;52.588;22.472;2023-03-01T03:15:20;27.10;;;16.30;;
34035;SDS011;63481;52.588;22.472;2023-03-01T03:16:13;28.50;;;16.60;;
34035;SDS011;63481;52.588;22.472;2023-03-01T03:17:07;29.60;;;16.20;;
34035;SDS011;63481;52.588;22.472;2023-03-01T03:17:59;30.30;;;18.10;;
34035;SDS011;63481;52.588;22.472;2023-03-01T03:18:52;30.90;;;16.20;;
34035;SDS011;63481;52.588;22.472;2023-03-01T03:19:45;31.40;;;16.30;;
34035;SDS011;63481;52.588;22.472;2023-03-01T03:20:38;30.80;;;17.80;;
34035;SDS011;63481;52.588;22.472;2023-03-01T03:21:33;29.50;;;16.60;;
34035;SDS011;63481;52.588;22.472;2023-03-01T03:22:26;30.50;;;16.40;;
34035;SDS011;63481;52.588;22.472;2023-03-01T03:23:21;29.40;;;16.90;;
34035;SDS011;63481;52.588;22.472;2023-03-01T03:24:14;31.40;;;16.90;;
34035;SDS011;63481;52.588;22.472;2023-03-01T03:25:07;31.10;;;17.20;;
34035;SDS011;63481;52.588;22.472;2023-03-01T03:26:04;31.40;;;16.80;;
34035;SDS011;63481;52.588;22.472;2023-03-01T03:26:57;30.40;;;16.70;;
34035;SDS011;63481;52.588;22.472;2023-03-01T03:27:51;36.10;;;16.70;;
34035;SDS011;63481;52.588;22.472;2023-03-01T03:28:51;31.00;;;16.60;;
34035;SDS011;63481;52.588;22.472;2023-03-01T03:29:44;34.80;;;17.90;;
34035;SDS011;63481;52.588;22.472;2023-03-01T03:30:37;29.70;;;15.70;;
34035;SDS011;63481;52.588;22.472;2023-03-01T03:31:31;34.70;;;17.80;;
34035;SDS011;63481;52.588;22.472;2023-03-01T03:32:24;33.10;;;17.60;;
34035;SDS011;63481;52.588;22.472;2023-03-01T03:33:16;33.30;;;17.40;;
34035;SDS011;63481;52.588;22.472;2023-03-01T03:34:09;33.30;;;17.40;;
34035;SDS011;63481;52.588;22.472;2023-03-01T03:35:10;34.50;;;18.30;;
34035;SDS011;63481;52.588;22.472;2023-03-01T03:36:02;32.10;;;17.80;;
34035;SDS011;63481;52.588;22.472;2023-03-01T03:36:56;31.50;;;17.40;;
34035;SDS011;63481;52.588;22.472;2023-03-01T03:37:51;36.40;;;18.60;;
34035;SDS011;63481;52.588;22.472;2023-03-01T03:38:58;31.60;;;16.60;;
34035;SDS011;63481;52.588;22.472;2023-03-01T03:39:51;35.40;;;17.90;;
34035;SDS011;63481;52.588;22.472;2023-03-01T03:40:50;30.30;;;17.30;;
34035;SDS011;63481;52.588;22.472;2023-03-01T03:41:46;30.70;;;16.40;;
34035;SDS011;63481;52.588;22.472;2023-03-01T03:42:39;33.60;;;16.90;;
34035;SDS011;63481;52.588;22.472;2023-03-01T03:43:32;32.20;;;16.50;;
34035;SDS011;63481;52.588;22.472;2023-03-01T03:44:27;30.90;;;17.20;;
34035;SDS011;63481;52.588;22.472;2023-03-01T03:45:20;30.20;;;17.70;;
34035;SDS011;63481;52.588;22.472;2023-03-01T03:46:13;33.80;;;18.20;;
34035;SDS011;63481;52.588;22.472;2023-03-01T03:47:06;28.30;;;17.10;;
34035;SDS011;63481;52.588;22.472;2023-03-01T03:47:59;31.90;;;17.60;;
34035;SDS011;63481;52.588;22.472;2023-03-01T03:48:52;31.70;;;17.30;;
34035;SDS011;63481;52.588;22.472;2023-03-01T03:49:45;32.90;;;17.30;;
34035;SDS011;63481;52.588;22.472;2023-03-01T03:50:38;36.30;;;18.50;;
34035;SDS011;63481;52.588;22.472;2023-03-01T03:51:34;30.40;;;17.00;;
34035;SDS011;63481;52.588;22.472;2023-03-01T03:52:27;34.70;;;17.20;;
34035;SDS011;63481;52.588;22.472;2023-03-01T03:53:21;30.40;;;17.30;;
34035;SDS011;63481;52.588;22.472;2023-03-01T03:54:15;32.10;;;18.50;;
34035;SDS011;63481;52.588;22.472;2023-03-01T03:55:08;33.90;;;17.40;;
34035;SDS011;63481;52.588;22.472;2023-03-01T03:56:02;31.40;;;16.60;;
34035;SDS011;63481;52.588;22.472;2023-03-01T03:56:56;32.60;;;17.70;;
34035;SDS011;63481;52.588;22.472;2023-03-01T03:57:50;28.80;;;16.90;;
34035;SDS011;63481;52.588;22.472;2023-03-01T03:58:44;31.60;;;17.20;;
34035;SDS011;63481;52.588;22.472;2023-03-01T03:59:37;31.00;;;17.80;;
34035;SDS011;63481;52.588;22.472;2023-03-01T04:00:30;32.70;;;17.90;;
34035;SDS011;63481;52.588;22.472;2023-03-01T04:01:24;30.60;;;17.90;;
34035;SDS011;63481;52.588;22.472;2023-03-01T04:02:17;30.00;;;17.50;;
34035;SDS011;63481;52.588;22.472;2023-03-01T04:03:15;32.40;;;17.50;;
34035;SDS011;63481;52.588;22.472;2023-03-01T04:04:09;33.20;;;17.40;;
34035;SDS011;63481;52.588;22.472;2023-03-01T04:05:02;32.10;;;18.40;;
34035;SDS011;63481;52.588;22.472;2023-03-01T04:05:59;33.10;;;18.00;;
34035;SDS011;63481;52.588;22.472;2023-03-01T04:06:53;31.80;;;16.80;;
34035;SDS011;63481;52.588;22.472;2023-03-01T04:07:47;33.10;;;17.60;;
34035;SDS011;63481;52.588;22.472;2023-03-01T04:08:40;32.30;;;17.40;;
34035;SDS011;63481;52.588;22.472;2023-03-01T04:09:34;30.30;;;17.20;;
34035;SDS011;63481;52.588;22.472;2023-03-01T04:10:27;30.70;;;17.50;;
34035;SDS011;63481;52.588;22.472;2023-03-01T04:11:22;31.20;;;18.20;;
34035;SDS011;63481;52.588;22.472;2023-03-01T04:12:18;31.20;;;17.30;;
34035;SDS011;63481;52.588;22.472;2023-03-01T04:13:17;34.70;;;18.00;;
34035;SDS011;63481;52.588;22.472;2023-03-01T04:14:15;29.20;;;14.60;;
34035;SDS011;63481;52.588;22.472;2023-03-01T04:15:09;33.20;;;17.00;;
34035;SDS011;63481;52.588;22.472;2023-03-01T04:16:06;33.60;;;18.30;;
34035;SDS011;63481;52.588;22.472;2023-03-01T04:16:58;34.30;;;18.40;;
34035;SDS011;63481;52.588;22.472;2023-03-01T04:17:51;31.70;;;17.90;;
34035;SDS011;63481;52.588;22.472;2023-03-01T04:18:45;32.60;;;18.20;;
34035;SDS011;63481;52.588;22.472;2023-03-01T04:19:39;33.00;;;17.80;;
34035;SDS011;63481;52.588;22.472;2023-03-01T04:20:33;37.30;;;19.10;;
34035;SDS011;63481;52.588;22.472;2023-03-01T04:21:27;33.00;;;18.80;;
34035;SDS011;63481;52.588;22.472;2023-03-01T04:22:20;39.50;;;19.40;;
34035;SDS011;63481;52.588;22.472;2023-03-01T04:23:13;34.50;;;18.60;;
34035;SDS011;63481;52.588;22.472;2023-03-01T04:24:12;30.00;;;17.80;;
34035;SDS011;63481;52.588;22.472;2023-03-01T04:25:05;35.70;;;19.40;;
34035;SDS011;63481;52.588;22.472;2023-03-01T04:25:59;33.80;;;18.60;;
34035;SDS011;63481;52.588;22.472;2023-03-01T04:26:53;35.10;;;18.50;;
34035;SDS011;63481;52.588;22.472;2023-03-01T04:27:46;33.90;;;18.30;;
34035;SDS011;63481;52.588;22.472;2023-03-01T04:28:40;34.20;;;19.30;;
34035;SDS011;63481;52.588;22.472;2023-03-01T04:29:37;35.50;;;19.00;;
34035;SDS011;63481;52.588;22.472;2023-03-01T04:30:29;33.70;;;19.00;;
34035;SDS011;63481;52.588;22.472;2023-03-01T04:31:27;35.50;;;18.50;;
34035;SDS011;63481;52.588;22.472;2023-03-01T04:32:20;33.20;;;19.20;;
34035;SDS011;63481;52.588;22.472;2023-03-01T04:33:13;36.70;;;20.10;;
34035;SDS011;63481;52.588;22.472;2023-03-01T04:34:05;35.60;;;19.80;;
34035;SDS011;63481;52.588;22.472;2023-03-01T04:34:58;32.00;;;18.60;;
34035;SDS011;63481;52.588;22.472;2023-03-01T04:35:52;33.50;;;18.40;;
34035;SDS011;63481;52.588;22.472;2023-03-01T04:36:45;36.90;;;19.20;;
34035;SDS011;63481;52.588;22.472;2023-03-01T04:37:39;33.70;;;18.80;;
34035;SDS011;63481;52.588;22.472;2023-03-01T04:38:34;36.00;;;20.60;;
34035;SDS011;63481;52.588;22.472;2023-03-01T04:39:29;36.00;;;19.90;;
34035;SDS011;63481;52.588;22.472;2023-03-01T04:40:23;32.60;;;18.40;;
34035;SDS011;63481;52.588;22.472;2023-03-01T04:41:17;34.60;;;19.70;;
34035;SDS011;63481;52.588;22.472;2023-03-01T04:42:12;32.50;;;18.80;;
34035;SDS011;63481;52.588;22.472;2023-03-01T04:43:06;33.60;;;18.30;;
34035;SDS011;63481;52.588;22.472;2023-03-01T04:43:59;36.60;;;20.70;;
34035;SDS011;63481;52.588;22.472;2023-03-01T04:44:52;37.70;;;21.10;;
34035;SDS011;63481;52.588;22.472;2023-03-01T04:45:46;31.80;;;18.70;;
34035;SDS011;63481;52.588;22.472;2023-03-01T04:46:39;36.90;;;20.10;;
34035;SDS011;63481;52.588;22.472;2023-03-01T04:47:32;32.10;;;18.70;;
34035;SDS011;63481;52.588;22.472;2023-03-01T04:48:25;32.70;;;18.70;;
34035;SDS011;63481;52.588;22.472;2023-03-01T04:49:18;31.40;;;18.90;;
34035;SDS011;63481;52.588;22.472;2023-03-01T04:50:11;35.80;;;19.30;;
34035;SDS011;63481;52.588;22.472;2023-03-01T04:51:08;37.20;;;20.90;;
34035;SDS011;63481;52.588;22.472;2023-03-01T04:52:01;33.30;;;18.20;;
34035;SDS011;63481;52.588;22.472;2023-03-01T04:52:56;32.40;;;18.90;;
34035;SDS011;63481;52.588;22.472;2023-03-01T04:53:52;35.00;;;18.80;;
34035;SDS011;63481;52.588;22.472;2023-03-01T04:54:45;35.40;;;19.70;;
34035;SDS011;63481;52.588;22.472;2023-03-01T04:55:37;35.40;;;20.00;;
34035;SDS011;63481;52.588;22.472;2023-03-01T04:56:31;36.90;;;19.50;;
34035;SDS011;63481;52.588;22.472;2023-03-01T04:57:23;36.50;;;18.90;;
34035;SDS011;63481;52.588;22.472;2023-03-01T04:58:16;40.10;;;19.50;;
34035;SDS011;63481;52.588;22.472;2023-03-01T04:59:09;37.50;;;19.20;;
34035;SDS011;63481;52.588;22.472;2023-03-01T05:00:03;34.50;;;19.70;;
34035;SDS011;63481;52.588;22.472;2023-03-01T05:01:16;33.90;;;20.30;;
34035;SDS011;63481;52.588;22.472;2023-03-01T05:02:11;34.20;;;19.50;;
34035;SDS011;63481;52.588;22.472;2023-03-01T05:03:03;37.00;;;19.90;;
34035;SDS011;63481;52.588;22.472;2023-03-01T05:03:56;33.70;;;19.00;;
34035;SDS011;63481;52.588;22.472;2023-03-01T05:04:55;35.40;;;20.00;;
34035;SDS011;63481;52.588;22.472;2023-03-01T05:05:51;33.00;;;19.40;;
34035;SDS011;63481;52.588;22.472;2023-03-01T05:06:45;34.80;;;19.60;;
34035;SDS011;63481;52.588;22.472;2023-03-01T05:07:38;34.70;;;19.20;;
34035;SDS011;63481;52.588;22.472;2023-03-01T05:08:31;33.30;;;19.00;;
34035;SDS011;63481;52.588;22.472;2023-03-01T05:09:29;33.30;;;18.50;;
34035;SDS011;63481;52.588;22.472;2023-03-01T05:10:21;34.10;;;20.30;;
34035;SDS011;63481;52.588;22.472;2023-03-01T05:11:15;33.40;;;19.80;;
34035;SDS011;63481;52.588;22.472;2023-03-01T05:12:08;36.70;;;20.10;;
34035;SDS011;63481;52.588;22.472;2023-03-01T05:13:02;36.90;;;20.10;;
34035;SDS011;63481;52.588;22.472;2023-03-01T05:13:55;33.90;;;19.20;;
34035;SDS011;63481;52.588;22.472;2023-03-01T05:14:48;38.50;;;20.60;;
34035;SDS011;63481;52.588;22.472;2023-03-01T05:15:40;34.40;;;19.80;;
34035;SDS011;63481;52.588;22.472;2023-03-01T05:16:34;37.00;;;20.40;;
34035;SDS011;63481;52.588;22.472;2023-03-01T05:17:28;36.00;;;19.60;;
34035;SDS011;63481;52.588;22.472;2023-03-01T05:18:21;37.10;;;19.40;;
34035;SDS011;63481;52.588;22.472;2023-03-01T05:19:18;34.70;;;19.10;;
34035;SDS011;63481;52.588;22.472;2023-03-01T05:20:14;34.40;;;19.40;;
34035;SDS011;63481;52.588;22.472;2023-03-01T05:21:08;35.20;;;19.40;;
34035;SDS011;63481;52.588;22.472;2023-03-01T05:22:08;33.70;;;19.00;;
34035;SDS011;63481;52.588;22.472;2023-03-01T05:23:01;38.70;;;20.10;;
34035;SDS011;63481;52.588;22.472;2023-03-01T05:23:57;38.80;;;18.70;;
34035;SDS011;63481;52.588;22.472;2023-03-01T05:24:50;38.00;;;19.30;;
34035;SDS011;63481;52.588;22.472;2023-03-01T05:25:42;36.90;;;20.70;;
34035;SDS011;63481;52.588;22.472;2023-03-01T05:26:36;35.60;;;19.90;;
34035;SDS011;63481;52.588;22.472;2023-03-01T05:27:32;34.70;;;19.10;;
34035;SDS011;63481;52.588;22.472;2023-03-01T05:28:26;41.50;;;19.80;;